Time;durP1;ratioP1;P1;durP2;ratioP2;P2;SDS_P1;SDS_P2;PMS_P1;PMS_P2;Temp;Humidity;BMP_temperature;BMP_pressure;BME280_temperature;BME280_humidity;BME280_pressure;Samples;Min_cycle;Max_cycle;Signal;HPM_P1;HPM_P2
2021/01/30 00:01:24;;;;;;;8.60;1.87;;;;;;;8.06;65.77;94443.66;6933937;28;20343;-75
2021/01/30 00:04:48;;;;;;;9.83;2.40;;;;;;;8.08;65.53;94451.44;6920431;28;20220;-75
2021/01/30 00:08:09;;;;;;;8.63;2.50;;;;;;;8.08;65.59;94447.00;6951058;28;20226;-76
2021/01/30 00:11:30;;;;;;;8.83;2.23;;;;;;;8.04;65.26;94442.97;6947685;28;20214;-75
2021/01/30 00:14:55;;;;;;;10.53;2.33;;;;;;;8.06;65.03;94448.09;6974013;28;20218;-75
2021/01/30 00:18:15;;;;;;;13.83;2.87;;;;;;;8.03;65.00;94438.66;6963640;28;20234;-75
2021/01/30 00:21:36;;;;;;;10.40;2.70;;;;;;;8.04;65.00;94429.75;6976352;28;20240;-75
2021/01/30 00:24:56;;;;;;;10.70;2.47;;;;;;;8.09;64.63;94439.91;6962541;28;20226;-75
2021/01/30 00:28:16;;;;;;;7.90;2.03;;;;;;;8.04;64.66;94429.75;6954614;28;21187;-75
2021/01/30 00:31:37;;;;;;;8.37;2.53;;;;;;;8.02;64.76;94426.41;6950810;28;20642;-75
2021/01/30 00:34:57;;;;;;;10.17;2.53;;;;;;;8.01;64.05;94429.19;6962579;28;20214;-75
2021/01/30 00:38:18;;;;;;;8.30;2.10;;;;;;;7.98;64.29;94430.31;6969709;28;20288;-75
2021/01/30 00:41:38;;;;;;;12.00;2.90;;;;;;;7.98;64.35;94425.03;6976168;28;20230;-75
2021/01/30 00:44:59;;;;;;;7.73;2.10;;;;;;;7.99;64.96;94432.00;6951150;28;20707;-75
2021/01/30 00:48:22;;;;;;;11.27;2.10;;;;;;;7.97;64.84;94430.44;6943227;28;20223;-75
2021/01/30 00:51:45;;;;;;;7.23;2.40;;;;;;;7.96;64.65;94423.47;6971532;28;20697;-75
2021/01/30 00:55:06;;;;;;;6.93;2.53;;;;;;;7.99;64.52;94436.44;6972217;28;20297;-75
2021/01/30 00:58:26;;;;;;;7.60;2.00;;;;;;;8.10;64.72;94429.16;6961712;28;20222;-75
2021/01/30 01:01:47;;;;;;;10.07;2.43;;;;;;;8.24;64.83;94433.22;6975645;28;20227;-75
2021/01/30 01:05:08;;;;;;;6.40;1.97;;;;;;;8.29;65.22;94432.78;6955701;28;20234;-75
2021/01/30 01:08:28;;;;;;;7.63;2.13;;;;;;;8.32;65.12;94427.22;6963713;28;20227;-76
2021/01/30 01:11:53;;;;;;;8.13;1.80;;;;;;;8.44;64.82;94426.94;6955860;28;20227;-75
2021/01/30 01:15:14;;;;;;;4.57;1.60;;;;;;;8.53;65.13;94431.34;6961075;28;20296;-75
2021/01/30 01:18:34;;;;;;;7.80;2.83;;;;;;;8.64;64.66;94432.16;6971512;28;20227;-75
2021/01/30 01:21:54;;;;;;;10.90;2.50;;;;;;;8.69;64.39;94417.53;6982768;28;20223;-74
2021/01/30 01:25:20;;;;;;;7.20;2.37;;;;;;;8.72;64.24;94426.97;6988222;28;20715;-75
2021/01/30 01:28:42;;;;;;;9.53;2.60;;;;;;;8.72;64.65;94421.66;6967963;28;20218;-75
2021/01/30 01:32:03;;;;;;;7.23;2.20;;;;;;;8.71;64.27;94433.22;6956764;28;20279;-75
2021/01/30 01:35:31;;;;;;;10.30;2.93;;;;;;;8.73;64.47;94431.28;6977658;28;20312;-75
2021/01/30 01:38:51;;;;;;;8.90;2.33;;;;;;;8.78;65.00;94421.94;6957126;28;20238;-75
2021/01/30 01:42:17;;;;;;;10.57;2.83;;;;;;;8.83;65.16;94419.69;6974348;28;20232;-75
2021/01/30 01:45:41;;;;;;;9.43;2.40;;;;;;;8.88;64.70;94416.59;6974833;28;20689;-75
2021/01/30 01:49:05;;;;;;;7.47;2.70;;;;;;;8.89;64.49;94412.97;6965269;28;20585;-75
2021/01/30 01:52:31;;;;;;;8.40;2.20;;;;;;;8.86;64.91;94429.13;6957470;28;20226;-76
2021/01/30 01:55:54;;;;;;;10.67;2.43;;;;;;;8.93;65.42;94409.03;6986569;28;20272;-76
2021/01/30 01:59:16;;;;;;;10.47;1.83;;;;;;;8.95;65.23;94413.19;6941187;28;20830;-75
2021/01/30 02:02:37;;;;;;;9.23;2.27;;;;;;;8.91;64.74;94408.34;6962639;28;21049;-75
2021/01/30 02:05:59;;;;;;;7.63;2.30;;;;;;;8.87;64.77;94399.88;6948572;28;20967;-75
2021/01/30 02:09:24;;;;;;;8.03;2.37;;;;;;;8.76;64.93;94399.22;6955406;28;20211;-75
2021/01/30 02:12:46;;;;;;;6.33;2.37;;;;;;;8.80;65.46;94400.63;6937717;28;20226;-75
2021/01/30 02:16:38;;;;;;;12.40;2.20;;;;;;;8.80;65.32;94393.47;6979037;28;20216;-75
2021/01/30 02:20:07;;;;;;;9.30;2.53;;;;;;;8.77;65.08;94393.78;6973045;28;20229;-75
2021/01/30 02:23:46;;;;;;;8.43;2.07;;;;;;;8.83;64.90;94389.72;6956030;28;20247;-75
2021/01/30 02:27:21;;;;;;;6.50;2.07;;;;;;;8.90;65.07;94378.38;6952852;28;20232;-76
2021/01/30 02:31:15;;;;;;;8.33;2.30;;;;;;;8.77;64.59;94372.63;6955374;28;20219;-75
2021/01/30 02:34:57;;;;;;;7.07;2.30;;;;;;;8.65;64.31;94362.38;6953567;28;20780;-76
2021/01/30 02:38:24;;;;;;;8.47;2.60;;;;;;;8.61;64.42;94359.16;6961035;28;20224;-76
2021/01/30 02:42:05;;;;;;;10.37;2.47;;;;;;;8.60;64.77;94347.75;6962797;28;20228;-76
2021/01/30 02:45:28;;;;;;;11.20;2.57;;;;;;;8.62;64.44;94363.50;6960076;28;20236;-75
2021/01/30 02:48:54;;;;;;;9.37;2.40;;;;;;;8.66;63.73;94358.72;6956696;28;20215;-76
2021/01/30 02:52:25;;;;;;;9.00;2.57;;;;;;;8.65;63.43;94349.16;6954741;28;20577;-75
2021/01/30 02:55:47;;;;;;;8.27;1.90;;;;;;;8.68;64.15;94346.19;6963639;28;20218;-75
2021/01/30 02:59:17;;;;;;;10.03;2.50;;;;;;;8.65;63.41;94343.84;6973213;28;20600;-75
2021/01/30 03:02:40;;;;;;;7.77;2.40;;;;;;;8.71;63.51;94340.59;6951747;28;20218;-75
2021/01/30 03:06:08;;;;;;;8.00;2.67;;;;;;;8.80;63.10;94343.19;6963475;28;20754;-75
2021/01/30 03:09:38;;;;;;;9.47;2.97;;;;;;;8.90;63.07;94332.56;6939653;28;20754;-75
2021/01/30 03:13:18;;;;;;;12.23;2.93;;;;;;;8.93;62.15;94333.09;6957688;28;20223;-75
2021/01/30 03:16:39;;;;;;;8.97;2.67;;;;;;;8.95;62.08;94333.78;6952248;28;20229;-75
2021/01/30 03:20:00;;;;;;;9.17;2.67;;;;;;;8.99;61.90;94329.03;6956488;28;20672;-75
2021/01/30 03:23:21;;;;;;;12.07;2.67;;;;;;;8.98;61.56;94325.53;6935118;28;20224;-75
2021/01/30 03:26:45;;;;;;;13.17;3.47;;;;;;;9.03;61.48;94327.75;6955897;28;20664;-76
2021/01/30 03:30:10;;;;;;;14.27;3.10;;;;;;;9.04;61.03;94309.06;6955228;28;20306;-75
2021/01/30 03:33:34;;;;;;;7.80;2.67;;;;;;;9.03;60.74;94288.03;6931439;28;20662;-75
2021/01/30 03:36:54;;;;;;;11.73;2.87;;;;;;;8.99;60.37;94291.97;6975116;28;20210;-75
2021/01/30 03:40:18;;;;;;;7.37;2.27;;;;;;;8.99;60.20;94279.56;6962352;28;20297;-75
2021/01/30 03:43:38;;;;;;;9.13;2.70;;;;;;;8.97;60.36;94286.81;6942679;28;20685;-75
2021/01/30 03:46:59;;;;;;;10.27;2.37;;;;;;;8.96;60.72;94266.59;6977468;28;20231;-75
2021/01/30 03:50:20;;;;;;;13.23;2.83;;;;;;;9.02;60.56;94265.16;6979817;28;20219;-75
2021/01/30 03:53:41;;;;;;;9.97;2.63;;;;;;;9.04;60.36;94268.50;6960044;28;20208;-75
2021/01/30 03:57:01;;;;;;;7.20;2.37;;;;;;;9.07;60.12;94273.50;6963779;28;20222;-75
2021/01/30 04:00:24;;;;;;;10.57;2.77;;;;;;;9.05;59.56;94273.63;6979395;28;20212;-75
2021/01/30 04:03:47;;;;;;;11.27;2.57;;;;;;;9.04;60.08;94268.50;6950472;28;20674;-75
2021/01/30 04:07:08;;;;;;;8.83;2.43;;;;;;;9.04;58.87;94242.03;6964771;28;20310;-76
2021/01/30 04:10:34;;;;;;;8.50;3.07;;;;;;;9.05;59.58;94235.75;6978797;28;20216;-76
2021/01/30 04:13:54;;;;;;;8.50;2.70;;;;;;;9.02;59.17;94236.03;6945650;28;20211;-76
2021/01/30 04:17:17;;;;;;;13.13;3.13;;;;;;;8.98;59.20;94237.34;6950975;28;20592;-75
2021/01/30 04:20:40;;;;;;;9.73;2.77;;;;;;;8.93;59.14;94243.09;6967938;28;20219;-75
2021/01/30 04:24:02;;;;;;;11.07;3.00;;;;;;;8.91;58.82;94234.44;6964443;28;20249;-75
2021/01/30 04:27:25;;;;;;;6.70;2.20;;;;;;;8.90;59.23;94224.03;6972188;28;20216;-75
2021/01/30 04:30:45;;;;;;;9.63;2.50;;;;;;;8.90;59.04;94219.53;6973109;28;20261;-75
2021/01/30 04:34:06;;;;;;;10.23;2.50;;;;;;;9.00;59.70;94232.72;6921412;28;20220;-75
2021/01/30 04:37:26;;;;;;;9.33;2.83;;;;;;;8.99;58.32;94225.78;6954278;28;20219;-75
2021/01/30 04:40:47;;;;;;;11.67;2.53;;;;;;;9.00;58.22;94212.34;6965351;28;20262;-76
2021/01/30 04:44:11;;;;;;;11.47;2.70;;;;;;;8.98;58.94;94211.69;6969206;28;20216;-76
2021/01/30 04:47:54;;;;;;;10.20;2.53;;;;;;;8.97;58.96;94207.38;6971331;28;20238;-76
2021/01/30 04:51:33;;;;;;;8.93;2.40;;;;;;;8.94;58.40;94198.91;6942644;28;20673;-76
2021/01/30 04:54:59;;;;;;;11.47;3.40;;;;;;;8.89;59.06;94188.78;6949501;28;20281;-76
2021/01/30 04:58:30;;;;;;;9.70;2.80;;;;;;;8.94;58.73;94175.94;6969423;28;20255;-75
2021/01/30 05:02:00;;;;;;;9.87;2.57;;;;;;;8.97;58.84;94166.81;6977633;28;20227;-75
2021/01/30 05:05:23;;;;;;;9.60;2.40;;;;;;;9.03;59.29;94151.16;6972878;28;20775;-75
2021/01/30 05:08:48;;;;;;;10.37;2.27;;;;;;;9.08;58.62;94144.56;6972235;28;20207;-75
2021/01/30 05:12:13;;;;;;;8.33;2.43;;;;;;;9.12;58.85;94140.63;6935073;28;20653;-75
2021/01/30 05:15:39;;;;;;;8.27;2.43;;;;;;;9.17;58.71;94133.88;6962849;28;21827;-76
2021/01/30 05:19:06;;;;;;;8.67;2.50;;;;;;;9.19;58.60;94133.75;6939354;28;20341;-75
2021/01/30 05:22:34;;;;;;;7.00;2.27;;;;;;;9.23;59.14;94124.50;6952198;28;20302;-76
2021/01/30 05:26:04;;;;;;;8.17;2.10;;;;;;;9.26;58.92;94113.56;6950053;28;20375;-75
2021/01/30 05:29:45;;;;;;;5.20;1.83;;;;;;;9.26;58.38;94109.09;6968974;28;20212;-74
2021/01/30 05:33:30;;;;;;;6.87;2.23;;;;;;;9.23;58.18;94116.53;6954577;28;20227;-75
2021/01/30 05:36:57;;;;;;;8.23;2.63;;;;;;;9.21;58.34;94105.25;6969364;28;20218;-75
2021/01/30 05:40:38;;;;;;;8.30;2.70;;;;;;;9.20;58.71;94117.69;6949996;28;20229;-75
2021/01/30 05:44:18;;;;;;;7.27;2.20;;;;;;;9.18;58.47;94110.88;6931619;28;20234;-75
2021/01/30 05:47:41;;;;;;;6.90;2.40;;;;;;;9.16;58.44;94112.84;6969094;28;20250;-75
2021/01/30 05:51:21;;;;;;;11.07;2.63;;;;;;;9.14;58.68;94099.78;6973665;28;20310;-75
2021/01/30 05:54:43;;;;;;;8.43;2.37;;;;;;;9.13;58.79;94094.63;6952347;28;20237;-75
2021/01/30 05:58:10;;;;;;;7.97;2.23;;;;;;;9.08;59.12;94081.03;6973616;28;20217;-75
2021/01/30 06:01:33;;;;;;;8.33;2.63;;;;;;;9.04;59.03;94080.50;6939659;28;20298;-75
2021/01/30 06:04:54;;;;;;;6.07;2.27;;;;;;;9.05;59.22;94064.44;6956380;28;20328;-75
2021/01/30 06:08:24;;;;;;;7.03;2.20;;;;;;;9.08;59.19;94065.97;6944249;28;20212;-75
2021/01/30 06:11:47;;;;;;;7.47;1.97;;;;;;;9.10;58.92;94056.06;6974550;28;20656;-75
2021/01/30 06:15:19;;;;;;;7.03;2.17;;;;;;;9.13;59.31;94049.59;6958426;28;20218;-75
2021/01/30 06:18:40;;;;;;;8.20;2.00;;;;;;;9.17;59.65;94050.94;6952305;28;20266;-74
2021/01/30 06:22:14;;;;;;;8.20;2.00;;;;;;;9.17;59.76;94049.13;6972605;28;20209;-75
2021/01/30 06:25:42;;;;;;;13.13;2.67;;;;;;;9.13;59.91;94053.09;6944894;28;20237;-75
2021/01/30 06:29:06;;;;;;;8.73;2.20;;;;;;;9.08;59.07;94042.13;6972039;28;20701;-75
2021/01/30 06:32:38;;;;;;;8.83;2.30;;;;;;;9.10;59.52;94028.75;6952349;28;20221;-75
2021/01/30 06:36:14;;;;;;;7.90;2.23;;;;;;;9.13;59.37;94036.38;6956042;28;20295;-75
2021/01/30 06:39:40;;;;;;;6.07;1.73;;;;;;;9.10;59.57;94019.00;6970404;28;20845;-75
2021/01/30 06:43:26;;;;;;;8.20;2.17;;;;;;;9.10;58.74;94020.81;6956290;28;20262;-76
2021/01/30 06:47:10;;;;;;;6.73;2.17;;;;;;;9.12;58.94;94022.28;6960913;28;20246;-75
2021/01/30 06:50:33;;;;;;;7.50;2.10;;;;;;;9.13;59.15;94018.66;6976137;28;20224;-75
2021/01/30 06:54:22;;;;;;;7.30;2.10;;;;;;;9.11;58.46;94009.19;6957204;28;20242;-75
2021/01/30 06:57:50;;;;;;;40.23;26.83;;;;;;;9.03;58.93;94005.53;6961981;28;20214;-75
2021/01/30 07:01:17;;;;;;;37.50;26.17;;;;;;;8.97;59.18;94011.47;6964492;28;20227;-76
2021/01/30 07:04:59;;;;;;;18.13;8.07;;;;;;;8.94;58.93;93990.59;6951329;28;20256;-76
2021/01/30 07:08:42;;;;;;;9.60;4.97;;;;;;;8.92;59.55;93986.44;6974874;28;20580;-75
2021/01/30 07:12:30;;;;;;;12.10;5.77;;;;;;;8.93;59.17;93983.63;6953622;28;20249;-75
2021/01/30 07:16:17;;;;;;;10.60;2.70;;;;;;;8.98;59.49;93975.22;6954188;28;20689;-75
2021/01/30 07:20:11;;;;;;;9.50;2.80;;;;;;;9.01;59.30;93972.25;6964146;28;20225;-75
2021/01/30 07:23:45;;;;;;;8.60;2.37;;;;;;;9.01;59.43;93966.94;6932875;28;20215;-75
2021/01/30 07:27:06;;;;;;;10.63;2.30;;;;;;;9.02;59.09;93964.16;6954894;28;20278;-75
2021/01/30 07:30:48;;;;;;;7.10;2.53;;;;;;;9.08;59.19;93945.97;6978385;28;20305;-75
2021/01/30 07:34:27;;;;;;;8.67;2.73;;;;;;;9.07;59.62;93937.19;6948884;28;20246;-75
2021/01/30 07:38:07;;;;;;;8.43;2.00;;;;;;;9.08;59.56;93933.56;6963021;28;20219;-75
2021/01/30 07:41:41;;;;;;;5.50;2.07;;;;;;;9.09;59.75;93929.09;6956884;28;20281;-77
2021/01/30 07:45:25;;;;;;;10.30;2.77;;;;;;;9.08;59.37;93916.84;6941622;28;20230;-75
2021/01/30 07:48:52;;;;;;;11.77;2.40;;;;;;;9.16;59.66;93909.75;6939599;28;20218;-75
2021/01/30 07:52:17;;;;;;;7.10;2.17;;;;;;;9.18;59.70;93901.66;6960163;28;20258;-75
2021/01/30 07:55:45;;;;;;;9.93;2.60;;;;;;;9.21;59.41;93896.03;6959790;28;20210;-75
2021/01/30 07:59:29;;;;;;;11.50;2.30;;;;;;;9.29;59.17;93890.78;6948848;28;20230;-74
2021/01/30 08:03:11;;;;;;;12.53;2.90;;;;;;;9.36;58.77;93892.59;6931298;28;20233;-76
2021/01/30 08:06:53;;;;;;;11.17;3.00;;;;;;;9.39;58.72;93876.41;6943183;28;20227;-76
2021/01/30 08:10:33;;;;;;;7.37;2.40;;;;;;;9.42;58.92;93867.28;6944492;28;20220;-77
2021/01/30 08:14:35;;;;;;;7.47;1.77;;;;;;;9.52;58.20;93860.00;6932709;28;20223;-76
2021/01/30 08:18:08;;;;;;;9.17;2.23;;;;;;;9.61;58.40;93860.84;6927792;28;20683;-76
2021/01/30 08:21:50;;;;;;;13.03;6.23;;;;;;;9.71;57.14;93851.75;6945242;28;20705;-76
2021/01/30 08:25:16;;;;;;;7.97;5.10;;;;;;;9.85;57.06;93852.94;6942799;28;20221;-76
2021/01/30 08:28:40;;;;;;;8.63;2.87;;;;;;;10.00;56.42;93855.75;6934083;28;20205;-76
2021/01/30 08:32:25;;;;;;;6.07;1.93;;;;;;;10.13;55.89;93850.75;6936347;28;20717;-76
2021/01/30 08:35:49;;;;;;;7.30;2.00;;;;;;;10.22;55.78;93847.13;6947043;28;20249;-76
2021/01/30 08:39:33;;;;;;;6.80;2.03;;;;;;;10.25;54.76;93841.50;6924797;28;20229;-74
2021/01/30 08:43:00;;;;;;;3.93;1.90;;;;;;;10.25;53.90;93837.03;6926982;28;20215;-75
2021/01/30 08:46:28;;;;;;;5.77;1.57;;;;;;;10.30;52.56;93828.56;6944440;28;20716;-74
2021/01/30 08:50:09;;;;;;;3.00;1.40;;;;;;;10.37;51.70;93828.69;6925632;28;20216;-75
2021/01/30 08:53:31;;;;;;;6.33;1.60;;;;;;;10.48;51.70;93818.53;6941532;28;20213;-75
2021/01/30 08:56:52;;;;;;;7.13;1.77;;;;;;;10.64;51.17;93815.84;6928234;28;20820;-75
2021/01/30 09:00:35;;;;;;;4.17;1.10;;;;;;;10.80;50.63;93820.28;6941261;28;20204;-76
2021/01/30 09:04:03;;;;;;;3.70;1.60;;;;;;;10.86;49.96;93813.44;6894138;28;20919;-74
2021/01/30 09:07:56;;;;;;;7.60;1.97;;;;;;;10.79;49.97;93823.91;6938209;28;20222;-74
2021/01/30 09:11:20;;;;;;;8.83;1.83;;;;;;;10.73;50.91;93820.13;6929072;28;20227;-74
2021/01/30 09:14:41;;;;;;;4.13;1.80;;;;;;;10.80;51.85;93816.78;6918262;28;20222;-73
2021/01/30 09:18:03;;;;;;;5.47;1.50;;;;;;;10.77;51.41;93809.97;6939853;28;20700;-73
2021/01/30 09:21:53;;;;;;;4.07;1.37;;;;;;;10.81;51.71;93799.88;6939155;28;20215;-73
2021/01/30 09:25:27;;;;;;;3.53;1.30;;;;;;;10.78;51.92;93793.06;6906939;28;20774;-74
2021/01/30 09:28:54;;;;;;;4.77;1.40;;;;;;;10.74;51.93;93784.63;6931603;28;20661;-72
2021/01/30 09:32:23;;;;;;;4.87;1.33;;;;;;;10.79;52.82;93773.47;6920524;28;20570;-73
2021/01/30 09:35:44;;;;;;;4.80;1.60;;;;;;;10.81;52.72;93765.34;6926461;28;20223;-72
2021/01/30 09:39:22;;;;;;;4.30;1.90;;;;;;;10.86;53.23;93760.34;6950126;28;20233;-75
2021/01/30 09:43:00;;;;;;;5.60;1.67;;;;;;;11.06;53.82;93753.59;6937882;28;20222;-74
2021/01/30 09:46:22;;;;;;;3.07;1.47;;;;;;;11.25;54.10;93757.59;6948698;28;20238;-74
2021/01/30 09:49:48;;;;;;;4.37;1.77;;;;;;;11.39;53.94;93746.22;6950358;28;20218;-75
2021/01/30 09:53:12;;;;;;;2.83;1.40;;;;;;;11.46;54.12;93741.84;6926859;28;20225;-75
2021/01/30 09:56:37;;;;;;;5.50;1.60;;;;;;;11.51;54.04;93734.16;6950045;28;20315;-74
2021/01/30 10:00:11;;;;;;;3.30;1.40;;;;;;;11.51;52.84;93732.34;6945810;28;20251;-75
2021/01/30 10:03:42;;;;;;;2.23;1.17;;;;;;;11.40;52.53;93731.94;6945550;28;20226;-75
2021/01/30 10:07:12;;;;;;;3.20;1.30;;;;;;;11.40;53.42;93734.59;6937531;28;20223;-74
2021/01/30 10:10:32;;;;;;;4.83;1.20;;;;;;;11.40;53.52;93730.09;6935004;28;20271;-75
2021/01/30 10:13:58;;;;;;;2.67;1.03;;;;;;;11.41;54.11;93725.59;6945094;28;20221;-75
2021/01/30 10:17:20;;;;;;;3.50;1.23;;;;;;;11.43;54.30;93724.41;6939985;28;20211;-74
2021/01/30 10:20:51;;;;;;;4.57;1.30;;;;;;;11.50;55.02;93713.91;6943809;28;20222;-76
2021/01/30 10:24:27;;;;;;;2.63;1.20;;;;;;;11.57;55.08;93710.34;6946500;28;20303;-76
2021/01/30 10:28:04;;;;;;;3.83;1.20;;;;;;;11.66;55.19;93699.63;6950783;28;20644;-77
2021/01/30 10:31:31;;;;;;;6.60;1.57;;;;;;;11.68;55.44;93698.44;6950306;28;20639;-76
2021/01/30 10:34:59;;;;;;;2.50;0.90;;;;;;;11.67;55.29;93703.97;6943246;28;20223;-76
2021/01/30 10:38:22;;;;;;;4.73;1.30;;;;;;;11.65;55.59;93695.31;6950871;28;20214;-76
2021/01/30 10:41:42;;;;;;;4.40;1.13;;;;;;;11.59;55.78;93696.88;6933923;28;20229;-76
2021/01/30 10:45:16;;;;;;;1.03;1.00;;;;;;;11.60;56.60;93680.75;6944223;28;20231;-77
2021/01/30 10:48:38;;;;;;;2.23;1.03;;;;;;;11.56;56.53;93692.75;6966181;28;20224;-76
2021/01/30 10:52:06;;;;;;;3.63;1.20;;;;;;;11.53;57.46;93682.47;6956701;28;20222;-74
2021/01/30 10:55:40;;;;;;;3.17;1.50;;;;;;;11.54;58.11;93676.16;6943410;28;20522;-75
2021/01/30 10:59:00;;;;;;;4.23;1.43;;;;;;;11.56;58.60;93679.47;6955134;28;20210;-75
2021/01/30 11:02:34;;;;;;;5.10;1.40;;;;;;;11.55;58.68;93669.84;6973268;28;20227;-75
2021/01/30 11:05:58;;;;;;;3.03;1.30;;;;;;;11.55;59.96;93669.00;6975166;28;20276;-75
2021/01/30 11:09:21;;;;;;;2.50;1.10;;;;;;;11.52;59.73;93664.84;6958015;28;20214;-77
2021/01/30 11:12:43;;;;;;;7.17;4.83;;;;;;;11.49;59.77;93661.75;6959908;28;20602;-74
2021/01/30 11:16:13;;;;;;;5.33;2.10;;;;;;;11.45;60.08;93655.13;6948629;28;20222;-74
2021/01/30 11:19:33;;;;;;;3.20;2.33;;;;;;;11.38;60.07;93638.25;6943940;28;20217;-75
2021/01/30 11:22:54;;;;;;;5.27;4.50;;;;;;;11.35;60.45;93635.97;6969907;28;20223;-74
2021/01/30 11:26:16;;;;;;;2.73;1.70;;;;;;;11.33;60.38;93636.13;6970842;28;20309;-74
2021/01/30 11:29:43;;;;;;;2.50;1.97;;;;;;;11.36;60.50;93640.28;6961291;28;20739;-74
2021/01/30 11:33:09;;;;;;;2.60;1.60;;;;;;;11.34;60.42;93635.13;6957366;28;20242;-74
2021/01/30 11:36:30;;;;;;;2.87;2.50;;;;;;;11.33;60.80;93625.50;6931878;28;20226;-75
2021/01/30 11:39:50;;;;;;;2.33;1.40;;;;;;;11.37;61.01;93628.63;6948512;28;20218;-75
2021/01/30 11:43:13;;;;;;;2.70;0.90;;;;;;;11.39;61.29;93624.78;6933460;28;20871;-74
2021/01/30 11:46:36;;;;;;;2.13;1.10;;;;;;;11.40;61.41;93623.78;6952081;28;20236;-74
2021/01/30 11:49:56;;;;;;;2.00;1.20;;;;;;;11.37;61.19;93618.81;6942161;28;20242;-75
2021/01/30 11:53:20;;;;;;;3.63;1.23;;;;;;;11.37;61.68;93623.31;6938240;28;20246;-74
2021/01/30 11:56:41;;;;;;;3.53;1.20;;;;;;;11.39;62.29;93611.50;6945273;28;20219;-74
2021/01/30 12:00:05;;;;;;;1.43;0.63;;;;;;;11.39;61.95;93618.66;6945830;28;20219;-74
2021/01/30 12:03:28;;;;;;;2.00;1.00;;;;;;;11.37;61.97;93610.84;6927783;28;20669;-73
2021/01/30 12:06:48;;;;;;;2.53;1.10;;;;;;;11.38;62.54;93607.19;6975966;28;20294;-74
2021/01/30 12:10:13;;;;;;;1.80;0.90;;;;;;;11.39;62.86;93597.38;6942172;28;20231;-75
2021/01/30 12:13:36;;;;;;;1.97;0.80;;;;;;;11.38;62.60;93588.59;6947262;28;20252;-75
2021/01/30 12:16:59;;;;;;;2.80;1.00;;;;;;;11.24;62.46;93586.75;6961072;28;20222;-75
2021/01/30 12:20:23;;;;;;;2.00;0.90;;;;;;;11.17;63.67;93577.81;6968971;28;20718;-75
2021/01/30 12:23:46;;;;;;;1.73;1.20;;;;;;;11.19;63.33;93576.66;6925873;28;20587;-75
2021/01/30 12:27:06;;;;;;;2.30;0.93;;;;;;;11.22;64.01;93567.47;6944980;28;20230;-76
2021/01/30 12:30:29;;;;;;;1.00;0.80;;;;;;;11.26;64.14;93565.31;6967260;28;20759;-74
2021/01/30 12:33:49;;;;;;;2.90;1.10;;;;;;;11.33;64.40;93560.91;6944501;28;20219;-75
2021/01/30 12:37:14;;;;;;;2.23;1.10;;;;;;;11.37;64.71;93549.72;6976308;28;20240;-75
2021/01/30 12:40:40;;;;;;;1.47;0.80;;;;;;;11.42;64.38;93544.69;6937467;28;20902;-74
2021/01/30 12:44:00;;;;;;;1.30;0.77;;;;;;;11.41;64.27;93542.25;6937164;28;20617;-76
2021/01/30 12:47:29;;;;;;;2.03;1.00;;;;;;;11.43;64.67;93551.66;6935230;28;20234;-75
2021/01/30 12:50:50;;;;;;;2.17;1.10;;;;;;;11.44;64.46;93545.34;6934344;28;20653;-76
2021/01/30 12:54:12;;;;;;;1.80;0.70;;;;;;;11.48;64.47;93543.97;6938740;28;20640;-75
2021/01/30 12:57:32;;;;;;;2.20;0.70;;;;;;;11.43;64.73;93534.88;6940476;28;20294;-74
2021/01/30 13:00:54;;;;;;;1.33;0.70;;;;;;;11.35;65.03;93533.16;6915218;28;20212;-74
2021/01/30 13:04:16;;;;;;;2.57;0.90;;;;;;;11.32;65.39;93530.84;6938472;28;20278;-72
2021/01/30 13:07:37;;;;;;;1.90;1.10;;;;;;;11.26;65.46;93525.47;6932071;28;20226;-71
2021/01/30 13:10:57;;;;;;;0.97;0.80;;;;;;;11.21;66.05;93519.88;6922323;28;20216;-74
2021/01/30 13:14:18;;;;;;;1.30;0.70;;;;;;;11.20;66.40;93516.38;6941458;28;20215;-72
2021/01/30 13:17:39;;;;;;;1.13;0.90;;;;;;;11.21;66.55;93518.03;6918502;28;20214;-73
2021/01/30 13:21:02;;;;;;;2.17;0.70;;;;;;;11.22;66.51;93503.72;6938663;28;20711;-73
2021/01/30 13:24:23;;;;;;;3.00;1.20;;;;;;;11.14;66.77;93502.00;6943369;28;20210;-73
2021/01/30 13:27:43;;;;;;;0.83;0.83;;;;;;;11.12;67.10;93498.69;6934336;28;20280;-72
2021/01/30 13:31:04;;;;;;;0.93;0.93;;;;;;;11.05;66.91;93503.09;6965796;28;20239;-73
2021/01/30 13:34:24;;;;;;;0.90;0.90;;;;;;;11.04;67.20;93497.94;6957853;28;20696;-72
2021/01/30 13:37:45;;;;;;;1.97;0.90;;;;;;;10.96;66.77;93492.72;6956025;28;20241;-72
2021/01/30 13:41:05;;;;;;;1.13;0.70;;;;;;;10.80;66.81;93498.19;6912392;28;20240;-73
2021/01/30 13:44:26;;;;;;;0.73;0.73;;;;;;;10.80;67.14;93495.53;6945493;28;20635;-74
2021/01/30 13:47:46;;;;;;;1.23;0.80;;;;;;;10.58;66.45;93495.38;6948698;28;20340;-74
2021/01/30 13:51:07;;;;;;;2.00;1.03;;;;;;;10.51;66.58;93489.13;6930901;28;20230;-72
2021/01/30 13:54:29;;;;;;;0.80;0.77;;;;;;;10.51;67.09;93493.63;6938102;28;20248;-73
2021/01/30 13:57:50;;;;;;;0.70;0.70;;;;;;;10.56;66.98;93480.66;6946456;28;20250;-73
2021/01/30 14:01:10;;;;;;;0.80;0.70;;;;;;;10.47;66.67;93474.56;6949625;28;20613;-74
2021/01/30 14:04:31;;;;;;;0.83;0.60;;;;;;;10.47;66.64;93474.56;6947404;28;20307;-74
2021/01/30 14:07:58;;;;;;;0.60;0.60;;;;;;;10.54;66.85;93472.88;6958363;28;20614;-73
2021/01/30 14:11:19;;;;;;;1.30;0.80;;;;;;;10.59;66.08;93469.66;6935889;28;20697;-73
2021/01/30 14:14:41;;;;;;;0.60;0.60;;;;;;;10.64;66.42;93464.66;6921241;28;20251;-75
2021/01/30 14:18:03;;;;;;;0.70;0.60;;;;;;;10.69;66.30;93465.75;6920056;28;20701;-73
2021/01/30 14:21:26;;;;;;;0.90;0.90;;;;;;;10.75;65.96;93464.22;6917086;28;20262;-74
2021/01/30 14:24:49;;;;;;;0.60;0.60;;;;;;;10.68;66.08;93444.69;6944129;28;20633;-74
2021/01/30 14:28:10;;;;;;;0.50;0.50;;;;;;;10.64;65.72;93454.03;6922716;28;20223;-74
2021/01/30 14:31:31;;;;;;;0.67;0.50;;;;;;;10.71;65.98;93441.69;6944876;28;20219;-75
2021/01/30 14:34:53;;;;;;;0.70;0.70;;;;;;;10.77;66.21;93433.00;6924810;28;20211;-74
2021/01/30 14:38:14;;;;;;;0.60;0.60;;;;;;;10.91;65.93;93436.69;6943931;28;20211;-73
2021/01/30 14:41:38;;;;;;;0.50;0.50;;;;;;;10.89;65.45;93438.69;6943478;28;20302;-73
2021/01/30 14:44:59;;;;;;;0.83;0.50;;;;;;;10.88;65.47;93437.03;6944292;28;20219;-73
2021/01/30 14:48:19;;;;;;;0.93;0.75;;;;;;;10.89;65.46;93442.16;6942907;28;21126;-73
2021/01/30 14:51:44;;;;;;;0.50;0.50;;;;;;;10.90;65.20;93437.69;6940579;28;20704;-73
2021/01/30 14:55:06;;;;;;;0.90;0.90;;;;;;;10.86;64.84;93428.44;6931520;28;20234;-73
2021/01/30 14:58:27;;;;;;;1.30;0.80;;;;;;;10.89;65.62;93428.06;6928322;28;21029;-72
2021/01/30 15:01:47;;;;;;;0.70;0.70;;;;;;;10.94;65.01;93431.00;6952191;28;20234;-72
2021/01/30 15:05:13;;;;;;;0.60;0.50;;;;;;;10.98;65.47;93426.97;6944440;28;20256;-72
2021/01/30 15:08:33;;;;;;;0.50;0.50;;;;;;;11.04;65.30;93423.59;6971238;28;20219;-72
2021/01/30 15:11:56;;;;;;;0.50;0.50;;;;;;;11.03;65.08;93416.63;6950342;28;20219;-72
2021/01/30 15:15:22;;;;;;;0.73;0.50;;;;;;;11.02;65.59;93417.63;6956179;28;20225;-73
2021/01/30 15:18:43;;;;;;;0.87;0.50;;;;;;;11.01;65.14;93408.03;6957162;28;20608;-73
2021/01/30 15:22:04;;;;;;;0.70;0.70;;;;;;;11.03;65.36;93413.97;6953322;28;20213;-74
2021/01/30 15:25:24;;;;;;;0.63;0.63;;;;;;;11.03;65.36;93414.78;6976038;28;20646;-72
2021/01/30 15:28:45;;;;;;;0.67;0.60;;;;;;;11.02;65.66;93409.66;6969963;28;20755;-72
2021/01/30 15:32:08;;;;;;;0.60;0.50;;;;;;;10.96;65.37;93408.59;6969251;28;20262;-72
2021/01/30 15:35:31;;;;;;;0.47;0.47;;;;;;;10.95;65.86;93411.41;6950757;28;20237;-73
2021/01/30 15:38:56;;;;;;;0.70;0.70;;;;;;;10.95;65.82;93404.28;6949199;28;20221;-73
2021/01/30 15:42:17;;;;;;;0.73;0.73;;;;;;;10.95;66.14;93403.44;6963743;28;20279;-74
2021/01/30 15:45:37;;;;;;;1.67;0.87;;;;;;;10.96;66.21;93402.44;6957944;28;20246;-75
2021/01/30 15:48:58;;;;;;;0.57;0.57;;;;;;;10.96;66.10;93403.28;6972209;28;20223;-74
2021/01/30 15:52:22;;;;;;;0.50;0.50;;;;;;;10.94;66.54;93393.81;6951192;28;20302;-74
2021/01/30 15:55:42;;;;;;;0.60;0.60;;;;;;;10.92;66.50;93395.81;6977090;28;20220;-75
2021/01/30 15:59:02;;;;;;;0.50;0.50;;;;;;;10.91;66.65;93392.38;6974073;28;20207;-74
2021/01/30 16:02:25;;;;;;;2.30;0.80;;;;;;;10.87;66.63;93393.72;6970345;28;20248;-75
2021/01/30 16:05:46;;;;;;;0.93;0.77;;;;;;;10.84;66.76;93393.28;6974678;28;20282;-75
2021/01/30 16:09:09;;;;;;;0.60;0.60;;;;;;;10.84;67.33;93398.59;6960387;28;20218;-74
2021/01/30 16:12:32;;;;;;;1.00;0.80;;;;;;;10.82;67.50;93398.75;6964973;28;20317;-75
2021/01/30 16:15:53;;;;;;;0.60;0.60;;;;;;;10.82;67.29;93397.94;6974550;28;20273;-74